Terminal Aerodrome Forecast
Issued by NWS Austin/San Antonio, TX

Home | Current Version | Previous Version | Text Only | Print | Product List | Glossary On
Versions: 1 2 3 4 5 6 7 8 9 10 11 12 13 14 15 16 17
000
FTUS44 KEWX 281600 AAC
TAFDRT
TAF AMD
KDRT 281607Z 2816/2912 14010KT 4SM BR OVC003
     FM281700 14010KT P6SM FEW005
     FM281730 14010G16KT P6SM SKC
     FM290000 12006KT P6SM SKC
     FM291000 11006KT P6SM SCT010=

USA.gov is the U.S. government's official web portal to all federal, state and local government web resources and services.